KCUB/CUB METAR and TAF weather

Enter ICAO airport designator
Station Type Date Time Source
KCUB METAR 2022/11/26 08:53 UTC NOAA

KCUB 260853Z AUTO 00000KT 5SM BR CLR 07/05 A3015 RMK AO2 SLP207 T00670050 50002


Station Type Date Time Source
KCUB Decoded METAR 2022/11/26 08:53 UTC NOAA

OWENS DOWNTOWN AIRPORT, SC, United States (KCUB) 33-58N 081-00W 56M
Nov 26, 2022 - 03:53 AM EST / 2022.11.26 0853 UTC
Wind: Calm:0
Visibility: 5 mile(s):0
Sky conditions: clear
Weather: mist
Temperature: 44.1 F (6.7 C)
Dew Point: 41.0 F (5.0 C)
Relative Humidity: 88%
Pressure (altimeter): 30.15 in. Hg (1020 hPa)
Pressure tendency: 0.01 inches (0.2 hPa) higher than three hours ago
ob: KCUB 260853Z AUTO 00000KT 5SM BR CLR 07/05 A3015 RMK AO2 SLP207 T00670050 50002
cycle: 9

Station Type Date Time Source
KCUB TAF 2022/11/26 09:16 UTC NOAA

TAF
AMD KCUB 260914Z 2609/2706 02005KT P6SM SCT250
TEMPO 2609/2610 5SM BR
FM261400 09005KT P6SM BKN250
FM261900 13005KT P6SM BKN120
FM270400 08004KT P6SM OVC025

Example: see airport list